createdAt,value
2019-03-31T00:00:38.052Z,225
2019-03-31T00:05:37.712Z,292
2019-03-31T00:10:37.516Z,292
2019-03-31T00:15:37.748Z,315
2019-03-31T00:20:37.404Z,315
2019-03-31T00:25:37.834Z,315
2019-03-31T00:30:38.229Z,315
2019-03-31T00:35:37.675Z,315
2019-03-31T00:40:38.217Z,315
2019-03-31T00:45:37.535Z,315
2019-03-31T00:50:37.971Z,315
2019-03-31T00:55:38.348Z,315
2019-03-31T01:00:37.791Z,315
2019-03-31T01:05:38.164Z,292
2019-03-31T01:10:37.942Z,292
2019-03-31T01:15:39.079Z,315
2019-03-31T01:20:37.999Z,315
2019-03-31T01:25:37.617Z,315
2019-03-31T01:30:37.954Z,315
2019-03-31T01:35:38.373Z,315
2019-03-31T01:40:37.716Z,315
2019-03-31T01:45:38.097Z,248
2019-03-31T01:50:38.093Z,248
2019-03-31T01:55:38.182Z,315
2019-03-31T02:00:37.614Z,315
2019-03-31T02:05:37.806Z,292
2019-03-31T02:10:37.559Z,292
2019-03-31T02:15:37.886Z,292
2019-03-31T02:20:38.232Z,292
2019-03-31T02:25:37.733Z,225
2019-03-31T02:30:38.262Z,225
2019-03-31T02:35:37.586Z,315
2019-03-31T02:40:38.136Z,315
2019-03-31T02:45:38.310Z,270
2019-03-31T02:50:37.843Z,270
2019-03-31T02:55:38.157Z,270
2019-03-31T03:00:38.471Z,270
2019-03-31T03:05:37.980Z,202
2019-03-31T03:10:37.855Z,202
2019-03-31T03:15:38.484Z,202
2019-03-31T03:20:37.806Z,202
2019-03-31T03:25:54.468Z,270
2019-03-31T03:30:38.471Z,270
2019-03-31T03:35:37.846Z,270
2019-03-31T03:40:38.375Z,270
2019-03-31T03:45:37.640Z,270
2019-03-31T03:50:38.247Z,270
2019-03-31T03:55:37.666Z,248
2019-03-31T04:00:38.149Z,248
2019-03-31T04:05:37.717Z,270
2019-03-31T04:10:38.121Z,270
2019-03-31T04:15:38.489Z,292
2019-03-31T04:20:39.521Z,292
2019-03-31T04:25:38.218Z,292
2019-03-31T04:30:38.663Z,292
2019-03-31T04:35:38.285Z,315
2019-03-31T04:40:37.894Z,315
2019-03-31T04:45:38.139Z,315
2019-03-31T04:50:37.940Z,315
2019-03-31T04:55:37.846Z,315
2019-03-31T05:00:38.211Z,315
2019-03-31T05:05:38.297Z,292
2019-03-31T05:10:37.725Z,292
2019-03-31T05:15:37.921Z,315
2019-03-31T05:20:38.374Z,315
2019-03-31T05:25:37.703Z,315
2019-03-31T05:30:38.117Z,315
2019-03-31T05:35:38.421Z,315
2019-03-31T05:40:37.752Z,315
2019-03-31T05:45:37.972Z,315
2019-03-31T05:50:38.469Z,315
2019-03-31T05:55:37.812Z,315
2019-03-31T06:00:38.220Z,315
2019-03-31T06:05:38.665Z,315
2019-03-31T06:10:37.921Z,315
2019-03-31T06:15:38.649Z,315
2019-03-31T06:20:37.970Z,315
2019-03-31T06:25:38.180Z,315
2019-03-31T06:30:38.604Z,315
2019-03-31T06:35:38.143Z,315
2019-03-31T06:40:38.539Z,315
2019-03-31T06:45:38.828Z,315
2019-03-31T06:50:38.067Z,315
2019-03-31T06:55:38.662Z,338
2019-03-31T07:00:38.006Z,338
2019-03-31T07:05:38.354Z,315
2019-03-31T07:10:38.023Z,315
2019-03-31T07:15:38.277Z,315
2019-03-31T07:20:38.704Z,315
2019-03-31T07:25:37.912Z,315
2019-03-31T07:30:38.177Z,315
2019-03-31T07:35:39.071Z,315
2019-03-31T07:40:38.688Z,315
2019-03-31T07:45:38.142Z,315
2019-03-31T07:50:38.618Z,315
2019-03-31T07:55:37.822Z,315
2019-03-31T08:00:38.143Z,315
2019-03-31T08:05:38.587Z,315
2019-03-31T08:10:37.987Z,315
2019-03-31T08:15:38.669Z,315
2019-03-31T08:20:37.957Z,315
2019-03-31T08:25:38.192Z,315
2019-03-31T08:30:38.664Z,315
2019-03-31T08:35:47.179Z,315
2019-03-31T08:40:38.016Z,315
2019-03-31T08:45:38.131Z,315
2019-03-31T08:50:38.626Z,315
2019-03-31T08:55:38.161Z,315
2019-03-31T09:00:38.405Z,315
2019-03-31T09:05:38.051Z,315
2019-03-31T09:10:38.397Z,315
2019-03-31T09:15:38.689Z,315
2019-03-31T09:20:38.185Z,315
2019-03-31T09:25:38.442Z,315
2019-03-31T09:30:38.859Z,315
2019-03-31T09:35:38.480Z,315
2019-03-31T09:40:38.810Z,315
2019-03-31T09:45:38.065Z,315
2019-03-31T09:50:38.436Z,315
2019-03-31T09:55:38.895Z,315
2019-03-31T10:00:38.223Z,315
2019-03-31T10:05:38.670Z,315
2019-03-31T10:10:38.582Z,315
2019-03-31T10:15:38.903Z,315
2019-03-31T10:20:38.249Z,315
2019-03-31T10:25:38.722Z,315
2019-03-31T10:30:38.058Z,315
2019-03-31T10:35:39.054Z,292
2019-03-31T10:40:38.416Z,292
2019-03-31T10:45:38.769Z,338
2019-03-31T10:50:38.330Z,338
2019-03-31T10:55:38.887Z,315
2019-03-31T11:00:38.102Z,315
2019-03-31T11:05:38.435Z,315
2019-03-31T11:10:38.804Z,315
2019-03-31T11:15:38.090Z,292
2019-03-31T11:20:38.435Z,292
2019-03-31T11:25:38.860Z,0
2019-03-31T11:30:38.993Z,0
2019-03-31T11:35:38.566Z,315
2019-03-31T11:40:38.977Z,315
2019-03-31T11:45:38.106Z,338
2019-03-31T11:50:38.537Z,338
2019-03-31T11:55:39.006Z,292
2019-03-31T12:00:38.232Z,292
2019-03-31T12:05:38.735Z,315
2019-03-31T12:10:38.789Z,315
2019-03-31T12:15:39.091Z,225
2019-03-31T12:20:38.552Z,225
2019-03-31T12:25:38.926Z,315
2019-03-31T12:30:38.288Z,315
2019-03-31T12:35:38.755Z,315
2019-03-31T12:40:39.007Z,315
2019-03-31T12:45:38.192Z,338
2019-03-31T12:50:38.548Z,338
2019-03-31T12:55:38.811Z,315
2019-03-31T13:00:39.092Z,315
2019-03-31T13:05:38.503Z,315
2019-03-31T13:10:39.279Z,315
2019-03-31T13:15:38.270Z,315
2019-03-31T13:20:38.536Z,315
2019-03-31T13:25:38.867Z,292
2019-03-31T13:30:38.285Z,292
2019-03-31T13:35:38.977Z,315
2019-03-31T13:40:38.304Z,315
2019-03-31T13:45:38.585Z,270
2019-03-31T13:50:39.185Z,270
2019-03-31T13:55:39.014Z,315
2019-03-31T14:00:38.352Z,315
2019-03-31T14:05:38.644Z,315
2019-03-31T14:10:39.237Z,315
2019-03-31T14:15:38.774Z,315
2019-03-31T14:20:39.113Z,315
2019-03-31T14:25:38.377Z,315
2019-03-31T14:30:38.674Z,315
2019-03-31T14:35:38.857Z,315
2019-03-31T14:40:39.255Z,315
2019-03-31T14:45:38.518Z,292
2019-03-31T14:50:38.907Z,292
2019-03-31T14:55:39.235Z,248
2019-03-31T15:00:38.559Z,248
2019-03-31T15:05:38.858Z,68
2019-03-31T15:10:38.404Z,68
2019-03-31T15:15:38.655Z,315
2019-03-31T15:20:39.055Z,315
2019-03-31T15:25:39.058Z,292
2019-03-31T15:30:39.323Z,292
2019-03-31T15:35:38.687Z,0
2019-03-31T15:40:39.118Z,0
2019-03-31T15:45:38.414Z,292
2019-03-31T15:50:38.719Z,292
2019-03-31T15:55:38.389Z,315
2019-03-31T16:00:38.641Z,315
2019-03-31T16:05:38.967Z,315
2019-03-31T16:10:38.468Z,315
2019-03-31T16:15:38.479Z,270
2019-03-31T16:20:38.881Z,270
2019-03-31T16:25:39.337Z,0
2019-03-31T16:30:38.681Z,0
2019-03-31T16:35:39.127Z,338
2019-03-31T16:40:38.455Z,338
2019-03-31T16:45:38.770Z,315
2019-03-31T16:50:39.038Z,315
2019-03-31T16:55:39.367Z,45
2019-03-31T17:00:38.606Z,45
2019-03-31T17:05:39.107Z,0
2019-03-31T17:10:38.817Z,0
2019-03-31T17:15:39.138Z,45
2019-03-31T17:20:39.496Z,45
2019-03-31T17:25:38.659Z,0
2019-03-31T17:30:38.922Z,0
2019-03-31T17:35:38.722Z,338
2019-03-31T17:40:39.008Z,338
2019-03-31T17:45:39.303Z,68
2019-03-31T17:50:38.689Z,68
2019-03-31T17:55:38.974Z,45
2019-03-31T18:00:39.414Z,45
2019-03-31T18:05:39.391Z,45
2019-03-31T18:10:38.772Z,45
2019-03-31T18:15:39.149Z,68
2019-03-31T18:20:38.873Z,68
2019-03-31T18:25:39.177Z,90
2019-03-31T18:30:39.542Z,90
2019-03-31T18:35:38.957Z,68
2019-03-31T18:40:39.349Z,68
2019-03-31T18:45:38.593Z,68
2019-03-31T18:50:38.999Z,68
2019-03-31T18:55:39.174Z,68
2019-03-31T19:00:39.419Z,68
2019-03-31T19:05:38.903Z,68
2019-03-31T19:10:49.213Z,68
2019-03-31T19:15:39.181Z,68
2019-03-31T19:20:39.561Z,68
2019-03-31T19:25:38.867Z,68
2019-03-31T19:30:39.209Z,68
2019-03-31T19:35:39.605Z,68
2019-03-31T19:40:41.415Z,68
2019-03-31T19:45:38.842Z,68
2019-03-31T19:50:39.114Z,68
2019-03-31T19:55:39.556Z,68
2019-03-31T20:00:38.956Z,68
2019-03-31T20:05:39.231Z,68
2019-03-31T20:10:38.802Z,68
2019-03-31T20:15:39.125Z,68
2019-03-31T20:20:39.626Z,68
2019-03-31T20:25:38.857Z,68
2019-03-31T20:30:39.200Z,68
2019-03-31T20:35:39.646Z,68
2019-03-31T20:40:38.924Z,68
2019-03-31T20:45:39.143Z,68
2019-03-31T20:50:39.582Z,68
2019-03-31T20:55:38.760Z,68
2019-03-31T21:00:39.005Z,68
2019-03-31T21:05:39.482Z,68
2019-03-31T21:10:39.218Z,68
2019-03-31T21:15:39.761Z,68
2019-03-31T21:20:39.206Z,68
2019-03-31T21:25:39.672Z,68
2019-03-31T21:30:38.911Z,68
2019-03-31T21:35:39.277Z,68
2019-03-31T21:40:39.642Z,68
2019-03-31T21:45:38.936Z,68
2019-03-31T21:50:39.433Z,68
2019-03-31T21:55:39.433Z,68
2019-03-31T22:00:39.735Z,68
2019-03-31T22:05:39.275Z,68
2019-03-31T22:10:38.919Z,68
2019-03-31T22:15:39.759Z,68
2019-03-31T22:20:39.162Z,68
2019-03-31T22:25:39.432Z,68
2019-03-31T22:30:39.858Z,68
2019-03-31T22:35:39.336Z,68
2019-03-31T22:40:39.664Z,68
2019-03-31T22:45:39.737Z,68
2019-03-31T22:50:39.196Z,68
2019-03-31T22:55:39.507Z,68
2019-03-31T23:00:39.581Z,68
2019-03-31T23:05:39.199Z,68
2019-03-31T23:10:39.691Z,68
2019-03-31T23:15:39.919Z,68
2019-03-31T23:20:39.108Z,68
2019-03-31T23:25:39.436Z,68
2019-03-31T23:30:39.845Z,68
2019-03-31T23:35:39.194Z,68
2019-03-31T23:40:39.572Z,68
2019-03-31T23:45:39.892Z,68
2019-03-31T23:50:39.358Z,68
2019-03-31T23:55:39.509Z,68
